Поточна погода

  • DecodeMetar

    METAR UKBB 220700Z 01004MPS CAVOK 20/12 Q1021 R88/CLRD// NOSIG

    Регулярне зведення по аеродрому Київ/Бориспіль за 07:00 UTC.

    Напрямок вітру: 10°.

    Швидкість вітру: 4 м/с.

    Погодні умови хороші.

    Температура: повітря 20 °C, точки роси 12 °C.

    Вологість: 57%.

    Атмосферний тиск: 1021 гПа.

    Стан на всіх ЗПС: чисто, умови гальмування не повідомляються.

    Прогноз на 2 години. Без суттєвих змін.


    METAR UKKK 220700Z 03004MPS 360V060 9999 SCT046 20/09 Q1021 R08/CLRD70 NOSIG

    Регулярне зведення по аеродрому Київ/Жуляни за 07:00 UTC.

    Напрямок вітру: 30°.

    Швидкість вітру: 4 м/с.

    Зміни в напрямку вітру: від 360° до 60°.

    Видимість: більше 10 км.

    Стан неба: хмарність розсіяна (3-4 окт) на висоті 1380 м.

    Температура: повітря 20 °C, точки роси 09 °C.

    Вологість: 46%.

    Атмосферний тиск: 1021 гПа.

    Стан ЗПС 08 чисто, коефіцієнт тертя 0.7.

    Прогноз на 2 години. Без суттєвих змін.


    METAR UKKM 220700Z 02003MPS 350V060 9999 FEW047 20/12 Q1021 R33/CLRD70 NOSIG

    Регулярне зведення по аеродрому Київ/Антонов-2 (Гостомель) за 07:00 UTC.

    Напрямок вітру: 20°.

    Швидкість вітру: 3 м/с.

    Зміни в напрямку вітру: від 350° до 60°.

    Видимість: більше 10 км.

    Стан неба: хмарність незначна (1-2 окт) на висоті 1410 м.

    Температура: повітря 20 °C, точки роси 12 °C.

    Вологість: 57%.

    Атмосферний тиск: 1021 гПа.

    Стан ЗПС 33 чисто, коефіцієнт тертя 0.7.

    Прогноз на 2 години. Без суттєвих змін.


    METAR UKKT 220700Z 36002MPS 270V360 CAVOK 23/16 Q1021

    Регулярне зведення по аеродрому Київ/Антонов-1 (Святошин) за 07:00 UTC.

    Напрямок вітру: 360°.

    Швидкість вітру: 2 м/с.

    Зміни в напрямку вітру: від 270° до 360°.

    Погодні умови хороші.

    Температура: повітря 23 °C, точки роси 16 °C.

    Вологість: 61%.

    Атмосферний тиск: 1021 гПа.